createdAt,value
2022-08-16T00:01:24.496Z,4.32
2022-08-16T00:03:53.733Z,4.35
2022-08-16T00:06:21.852Z,4.20
2022-08-16T00:08:50.026Z,4.60
2022-08-16T00:11:20.969Z,4.03
2022-08-16T00:13:53.903Z,4.30
2022-08-16T00:17:05.736Z,4.00
2022-08-16T00:19:24.800Z,4.35
2022-08-16T00:22:01.589Z,4.40
2022-08-16T00:24:34.569Z,4.65
2022-08-16T00:27:04.020Z,4.60
2022-08-16T00:29:32.754Z,3.90
2022-08-16T00:32:05.607Z,5.30
2022-08-16T00:34:44.607Z,4.40
2022-08-16T00:37:24.346Z,3.92
2022-08-16T00:39:57.685Z,4.15
2022-08-16T00:42:31.752Z,4.25
2022-08-16T00:45:35.720Z,4.55
2022-08-16T00:48:30.479Z,4.75
2022-08-16T00:50:55.534Z,3.95
2022-08-16T00:53:23.475Z,4.80
2022-08-16T00:55:55.264Z,5.03
2022-08-16T00:58:34.529Z,4.47
2022-08-16T01:01:08.461Z,5.00
2022-08-16T01:03:41.721Z,3.67
2022-08-16T01:06:39.564Z,4.53
2022-08-16T01:09:01.419Z,4.63
2022-08-16T01:11:29.483Z,4.50
2022-08-16T01:14:11.364Z,4.78
2022-08-16T01:16:43.210Z,4.55
2022-08-16T01:19:37.126Z,5.25
2022-08-16T01:22:48.318Z,4.68
2022-08-16T01:25:34.592Z,4.55
2022-08-16T01:28:19.788Z,4.95
2022-08-16T01:30:56.135Z,4.72
2022-08-16T01:33:24.598Z,5.25
2022-08-16T01:36:11.661Z,5.40
2022-08-16T01:38:51.288Z,5.20
2022-08-16T01:41:30.741Z,4.83
2022-08-16T01:44:05.890Z,5.82
2022-08-16T01:46:41.142Z,4.90
2022-08-16T01:49:43.167Z,5.60
2022-08-16T01:52:29.424Z,5.10
2022-08-16T01:55:25.232Z,4.75
2022-08-16T01:57:56.452Z,5.57
2022-08-16T02:00:29.103Z,5.45
2022-08-16T02:02:58.867Z,5.03
2022-08-16T02:05:25.908Z,5.20
2022-08-16T02:07:58.350Z,5.07
2022-08-16T02:10:26.432Z,5.22
2022-08-16T02:12:59.805Z,5.18
2022-08-16T02:15:30.316Z,5.38
2022-08-16T02:18:01.181Z,5.30
2022-08-16T02:20:32.406Z,6.10
2022-08-16T02:23:01.679Z,6.05
2022-08-16T02:25:50.498Z,5.43
2022-08-16T02:28:19.644Z,5.53
2022-08-16T02:30:50.837Z,5.60
2022-08-16T02:33:24.322Z,5.90
2022-08-16T02:36:14.098Z,5.20
2022-08-16T02:38:42.290Z,5.68
2022-08-16T02:41:12.111Z,5.80
2022-08-16T02:43:39.790Z,6.28
2022-08-16T02:46:10.239Z,5.45
2022-08-16T02:48:49.079Z,5.57
2022-08-16T02:51:17.823Z,5.28
2022-08-16T02:53:47.969Z,5.18
2022-08-16T02:56:18.182Z,5.70
2022-08-16T02:58:48.344Z,5.72
2022-08-16T03:01:25.103Z,5.70
2022-08-16T03:04:29.833Z,5.32
2022-08-16T03:06:56.393Z,6.18
2022-08-16T03:09:36.793Z,5.97
2022-08-16T03:12:05.576Z,5.18
2022-08-16T03:14:35.428Z,5.50
2022-08-16T03:17:04.891Z,5.43
2022-08-16T03:19:47.479Z,5.78
2022-08-16T03:22:19.520Z,4.93
2022-08-16T03:25:04.591Z,6.55
2022-08-16T03:27:35.371Z,5.70
2022-08-16T03:30:16.692Z,5.65
2022-08-16T03:32:51.482Z,5.88
2022-08-16T03:35:23.408Z,5.65
2022-08-16T03:38:02.708Z,5.40
2022-08-16T03:40:37.164Z,6.20
2022-08-16T03:43:19.651Z,6.18
2022-08-16T03:45:53.551Z,5.50
2022-08-16T03:48:37.038Z,5.90
2022-08-16T03:51:16.127Z,6.45
2022-08-16T03:54:00.687Z,5.78
2022-08-16T03:56:30.479Z,5.97
2022-08-16T03:58:59.771Z,4.80
2022-08-16T04:01:32.001Z,6.20
2022-08-16T04:04:01.142Z,5.68
2022-08-16T04:06:29.584Z,6.05
2022-08-16T04:08:56.575Z,5.50
2022-08-16T04:11:24.628Z,6.13
2022-08-16T04:13:59.047Z,5.38
2022-08-16T04:16:32.265Z,6.20
2022-08-16T04:19:17.191Z,6.13
2022-08-16T04:21:45.917Z,6.38
2022-08-16T04:24:15.651Z,6.80
2022-08-16T04:26:46.280Z,6.43
2022-08-16T04:29:23.679Z,7.20
2022-08-16T04:31:56.354Z,6.32
2022-08-16T04:34:32.995Z,6.43
2022-08-16T04:37:02.001Z,6.47
2022-08-16T04:39:45.994Z,5.97
2022-08-16T04:42:18.900Z,6.40
2022-08-16T04:44:56.045Z,6.80
2022-08-16T04:47:35.498Z,6.43
2022-08-16T04:50:14.511Z,6.28
2022-08-16T04:52:59.079Z,6.28
2022-08-16T04:55:31.813Z,6.72
2022-08-16T04:58:43.946Z,7.20
2022-08-16T05:00:57.602Z,6.30
2022-08-16T05:03:26.084Z,7.20
2022-08-16T05:05:55.918Z,7.38
2022-08-16T05:08:30.941Z,7.05
2022-08-16T05:11:12.842Z,7.20
2022-08-16T05:13:45.661Z,7.53
2022-08-16T05:16:27.113Z,7.55
2022-08-16T05:19:04.922Z,7.18
2022-08-16T05:21:35.776Z,7.47
2022-08-16T05:24:07.781Z,6.78
2022-08-16T05:26:40.806Z,8.05
2022-08-16T05:29:15.195Z,8.13
2022-08-16T05:31:53.166Z,8.40
2022-08-16T05:34:22.518Z,8.57
2022-08-16T05:36:55.251Z,9.15
2022-08-16T05:39:26.001Z,8.75
2022-08-16T05:41:56.164Z,10.13
2022-08-16T05:44:25.346Z,13.50
2022-08-16T05:47:00.182Z,14.73
2022-08-16T05:49:38.318Z,15.85
2022-08-16T05:52:10.739Z,15.35
2022-08-16T05:54:46.568Z,15.80
2022-08-16T05:57:17.236Z,16.27
2022-08-16T05:59:47.315Z,18.70
2022-08-16T06:02:30.681Z,17.77
2022-08-16T06:05:02.311Z,18.00
2022-08-16T06:07:32.081Z,16.98
2022-08-16T06:10:09.873Z,14.90
2022-08-16T06:12:38.618Z,14.80
2022-08-16T06:15:15.089Z,14.88
2022-08-16T06:17:44.992Z,12.82
2022-08-16T06:20:35.098Z,13.82
2022-08-16T06:23:16.894Z,13.45
2022-08-16T06:26:07.390Z,13.23
2022-08-16T06:28:37.528Z,14.10
2022-08-16T06:31:13.034Z,13.90
2022-08-16T06:33:45.414Z,13.68
2022-08-16T06:36:16.882Z,13.27
2022-08-16T06:38:57.060Z,13.43
2022-08-16T06:41:42.229Z,12.32
2022-08-16T06:44:21.103Z,11.10
2022-08-16T06:46:54.280Z,10.80
2022-08-16T06:49:21.485Z,10.95
2022-08-16T06:51:49.095Z,11.15
2022-08-16T06:54:21.998Z,9.25
2022-08-16T06:56:52.383Z,9.57
2022-08-16T06:59:25.895Z,9.80
2022-08-16T07:01:58.317Z,9.43
2022-08-16T07:04:32.638Z,8.93
2022-08-16T07:07:12.052Z,8.77
2022-08-16T07:09:41.749Z,8.38
2022-08-16T07:12:09.549Z,8.55
2022-08-16T07:14:41.322Z,8.75
2022-08-16T07:17:11.296Z,9.32
2022-08-16T07:20:03.950Z,8.85
2022-08-16T07:22:42.540Z,9.07
2022-08-16T07:25:23.961Z,9.18
2022-08-16T07:27:52.417Z,8.82
2022-08-16T07:30:39.250Z,9.27
2022-08-16T07:33:17.191Z,8.68
2022-08-16T07:36:05.690Z,8.57
2022-08-16T07:38:35.713Z,8.18
2022-08-16T07:41:10.048Z,9.57
2022-08-16T07:43:41.664Z,8.73
2022-08-16T07:46:39.418Z,6.70
2022-08-16T07:49:02.646Z,7.10
2022-08-16T07:51:37.196Z,7.45
2022-08-16T07:54:10.028Z,7.68
2022-08-16T07:56:42.123Z,8.77
2022-08-16T07:59:10.224Z,7.82
2022-08-16T08:01:38.419Z,7.85
2022-08-16T08:04:08.712Z,8.07
2022-08-16T08:06:42.002Z,8.32
2022-08-16T08:09:14.390Z,8.38
2022-08-16T08:11:59.899Z,7.25
2022-08-16T08:14:30.372Z,7.40
2022-08-16T08:17:01.488Z,7.63
2022-08-16T08:19:30.597Z,6.97
2022-08-16T08:22:00.926Z,6.90
2022-08-16T08:24:44.143Z,5.53
2022-08-16T08:27:12.240Z,6.35
2022-08-16T08:30:50.187Z,5.53
2022-08-16T08:32:58.198Z,5.07
2022-08-16T08:35:27.091Z,6.28
2022-08-16T08:37:56.633Z,5.13
2022-08-16T08:40:29.184Z,5.25
2022-08-16T08:43:00.756Z,5.60
2022-08-16T08:45:48.458Z,4.63
2022-08-16T08:48:32.781Z,4.43
2022-08-16T08:51:09.006Z,4.78
2022-08-16T08:53:57.761Z,4.18
2022-08-16T08:56:30.385Z,4.40
2022-08-16T08:59:12.797Z,3.88
2022-08-16T09:01:56.523Z,3.88
2022-08-16T09:04:27.176Z,4.25
2022-08-16T09:06:55.693Z,4.55
2022-08-16T09:09:24.079Z,4.75
2022-08-16T09:12:06.296Z,4.38
2022-08-16T09:14:51.130Z,4.07
2022-08-16T09:17:49.170Z,5.05
2022-08-16T09:20:14.381Z,4.18
2022-08-16T09:22:44.122Z,4.45
2022-08-16T09:27:57.719Z,6.03
2022-08-16T09:30:36.375Z,5.65
2022-08-16T09:33:13.672Z,4.47
2022-08-16T09:35:42.446Z,5.68
2022-08-16T09:38:12.314Z,5.07
2022-08-16T09:40:47.083Z,4.47
2022-08-16T09:43:58.151Z,4.15
2022-08-16T09:46:46.009Z,5.25
2022-08-16T09:48:56.570Z,4.82
2022-08-16T09:51:26.260Z,4.72
2022-08-16T09:54:05.043Z,5.65
2022-08-16T09:56:35.347Z,4.88
2022-08-16T09:59:08.485Z,5.30
2022-08-16T10:01:38.454Z,4.95
2022-08-16T10:04:30.347Z,5.78
2022-08-16T10:09:54.241Z,5.72
2022-08-16T10:12:34.276Z,5.57
2022-08-16T10:17:28.236Z,5.75
2022-08-16T10:19:55.552Z,5.10
2022-08-16T10:22:23.497Z,6.05
2022-08-16T10:24:56.141Z,5.20
2022-08-16T10:27:47.054Z,7.30
2022-08-16T10:30:24.860Z,4.80
2022-08-16T10:32:56.153Z,5.95
2022-08-16T10:35:24.119Z,4.82
2022-08-16T10:37:59.604Z,4.90
2022-08-16T10:40:29.180Z,4.78
2022-08-16T10:43:01.854Z,4.57
2022-08-16T10:45:36.784Z,4.38
2022-08-16T10:48:27.712Z,4.53
2022-08-16T10:50:58.764Z,5.75
2022-08-16T10:53:33.156Z,4.15
2022-08-16T10:58:34.425Z,4.50
2022-08-16T11:03:57.268Z,5.22
2022-08-16T11:06:26.770Z,4.72
2022-08-16T11:14:30.644Z,4.68
2022-08-16T11:17:02.585Z,4.63
2022-08-16T11:20:00.593Z,4.13
2022-08-16T11:22:39.429Z,3.80
2022-08-16T11:25:12.655Z,3.58
2022-08-16T11:27:42.453Z,4.25
2022-08-16T11:30:20.035Z,4.38
2022-08-16T11:32:47.589Z,3.50
2022-08-16T11:35:43.495Z,3.80
2022-08-16T11:38:47.456Z,2.80
2022-08-16T11:41:05.252Z,3.13
2022-08-16T11:43:37.979Z,3.40
2022-08-16T11:46:45.030Z,3.40
2022-08-16T11:48:58.293Z,2.90
2022-08-16T11:51:25.356Z,4.45
2022-08-16T11:53:52.614Z,4.50
2022-08-16T11:56:51.549Z,3.67
2022-08-16T11:59:07.331Z,3.28
2022-08-16T12:01:44.127Z,3.35
2022-08-16T12:04:13.427Z,4.32
2022-08-16T12:06:40.758Z,4.97
2022-08-16T12:09:08.578Z,4.40
2022-08-16T12:11:37.289Z,3.42
2022-08-16T12:14:07.468Z,3.38
2022-08-16T12:16:35.688Z,5.13
2022-08-16T12:19:10.581Z,3.55
2022-08-16T12:21:57.663Z,3.95
2022-08-16T12:26:54.822Z,3.50
2022-08-16T12:29:22.288Z,3.50
2022-08-16T12:32:01.119Z,3.95
2022-08-16T12:34:37.759Z,3.67
2022-08-16T12:37:16.663Z,4.75
2022-08-16T12:39:50.949Z,3.65
2022-08-16T12:42:19.452Z,3.83
2022-08-16T12:44:49.050Z,3.75
2022-08-16T12:47:37.070Z,3.50
2022-08-16T12:50:14.839Z,4.60
2022-08-16T12:52:52.487Z,5.65
2022-08-16T12:55:21.961Z,3.78
2022-08-16T12:57:58.165Z,4.22
2022-08-16T13:00:33.007Z,4.05
2022-08-16T13:03:02.743Z,4.03
2022-08-16T13:05:37.837Z,3.90
2022-08-16T13:08:20.283Z,3.65
2022-08-16T13:10:52.566Z,3.42
2022-08-16T13:13:27.428Z,3.70
2022-08-16T13:16:03.667Z,3.75
2022-08-16T13:21:04.959Z,4.13
2022-08-16T13:23:31.909Z,4.88
2022-08-16T13:25:59.471Z,4.30
2022-08-16T13:28:26.667Z,3.97
2022-08-16T13:30:58.016Z,3.50
2022-08-16T13:33:30.642Z,4.15
2022-08-16T13:36:00.662Z,4.28
2022-08-16T13:38:37.625Z,3.90
2022-08-16T13:41:10.738Z,4.35
2022-08-16T13:43:39.349Z,3.25
2022-08-16T13:46:07.573Z,2.97
2022-08-16T13:48:37.129Z,3.05
2022-08-16T13:51:17.497Z,3.03
2022-08-16T13:53:54.960Z,3.40
2022-08-16T13:56:34.293Z,3.03
2022-08-16T13:59:19.545Z,3.17
2022-08-16T14:01:55.512Z,3.20
2022-08-16T14:04:38.173Z,3.65
2022-08-16T14:07:13.173Z,3.28
2022-08-16T14:09:47.156Z,3.38
2022-08-16T14:12:27.964Z,3.00
2022-08-16T14:14:57.261Z,3.88
2022-08-16T14:17:29.175Z,2.80
2022-08-16T14:19:59.776Z,3.03
2022-08-16T14:22:39.732Z,2.40
2022-08-16T14:25:16.555Z,2.63
2022-08-16T14:27:46.046Z,3.00
2022-08-16T14:30:17.691Z,2.50
2022-08-16T14:32:46.791Z,3.00
2022-08-16T14:35:29.516Z,3.60
2022-08-16T14:38:17.944Z,2.85
2022-08-16T14:40:52.837Z,3.45
2022-08-16T14:43:24.963Z,2.95
2022-08-16T14:45:54.895Z,2.53
2022-08-16T14:48:26.177Z,2.58
2022-08-16T14:50:55.269Z,2.20
2022-08-16T14:53:23.499Z,2.60
2022-08-16T14:55:50.768Z,2.53
2022-08-16T14:58:20.238Z,2.20
2022-08-16T15:01:09.735Z,2.53
2022-08-16T15:03:37.823Z,2.25
2022-08-16T15:06:05.770Z,2.08
2022-08-16T15:08:36.103Z,2.78
2022-08-16T15:11:04.859Z,2.25
2022-08-16T15:13:31.863Z,2.13
2022-08-16T15:16:02.575Z,2.78
2022-08-16T15:18:31.692Z,3.00
2022-08-16T15:21:04.906Z,3.22
2022-08-16T15:23:34.067Z,3.03
2022-08-16T15:26:03.516Z,3.53
2022-08-16T15:28:33.225Z,3.22
2022-08-16T15:31:04.025Z,3.00
2022-08-16T15:33:34.886Z,3.55
2022-08-16T15:36:04.009Z,3.20
2022-08-16T15:38:58.148Z,3.40
2022-08-16T15:41:48.270Z,3.05
2022-08-16T15:44:51.980Z,3.42
2022-08-16T15:47:26.015Z,3.45
2022-08-16T15:49:55.989Z,3.40
2022-08-16T15:52:32.378Z,3.25
2022-08-16T15:55:24.075Z,3.28
2022-08-16T15:57:55.413Z,3.25
2022-08-16T16:00:22.731Z,5.00
2022-08-16T16:03:08.614Z,8.02
2022-08-16T16:05:39.559Z,3.75
2022-08-16T16:08:11.128Z,2.40
2022-08-16T16:10:39.670Z,3.10
2022-08-16T16:13:08.801Z,3.28
2022-08-16T16:15:40.669Z,3.05
2022-08-16T16:18:09.956Z,2.78
2022-08-16T16:20:43.829Z,3.35
2022-08-16T16:23:11.630Z,3.00
2022-08-16T16:25:43.883Z,3.70
2022-08-16T16:29:06.761Z,2.90
2022-08-16T16:31:09.267Z,3.10
2022-08-16T16:33:39.905Z,3.38
2022-08-16T16:36:09.449Z,3.50
2022-08-16T16:38:39.267Z,3.17
2022-08-16T16:41:10.097Z,3.70
2022-08-16T16:43:43.434Z,3.63
2022-08-16T16:46:40.874Z,4.05
2022-08-16T16:49:08.896Z,4.25
2022-08-16T16:51:40.677Z,4.03
2022-08-16T16:54:09.289Z,5.32
2022-08-16T16:56:39.850Z,4.82
2022-08-16T16:59:17.020Z,5.00
2022-08-16T17:01:57.699Z,5.55
2022-08-16T17:04:32.745Z,6.47
2022-08-16T17:07:02.226Z,6.80
2022-08-16T17:09:30.033Z,5.30
2022-08-16T17:11:58.145Z,7.35
2022-08-16T17:17:13.254Z,7.57
2022-08-16T17:19:41.722Z,8.68
2022-08-16T17:22:19.902Z,7.85
2022-08-16T17:24:52.488Z,8.23
2022-08-16T17:27:33.270Z,7.03
2022-08-16T17:30:16.039Z,6.70
2022-08-16T17:32:54.782Z,6.70
2022-08-16T17:35:34.885Z,6.65
2022-08-16T17:38:08.713Z,8.13
2022-08-16T17:39:28.400Z,9.40
2022-08-16T17:40:51.982Z,6.95
2022-08-16T17:43:33.237Z,7.32
2022-08-16T17:46:01.607Z,7.07
2022-08-16T17:48:31.137Z,7.35
2022-08-16T17:50:59.596Z,6.63
2022-08-16T17:53:26.902Z,6.53
2022-08-16T17:55:55.187Z,7.10
2022-08-16T17:58:24.160Z,7.00
2022-08-16T18:01:00.193Z,6.50
2022-08-16T18:04:07.206Z,7.72
2022-08-16T18:06:25.481Z,7.20
2022-08-16T18:09:01.672Z,6.60
2022-08-16T18:11:32.843Z,6.43
2022-08-16T18:14:00.096Z,6.53
2022-08-16T18:16:27.452Z,6.55
2022-08-16T18:18:54.465Z,5.70
2022-08-16T18:21:40.786Z,6.20
2022-08-16T18:24:09.552Z,7.05
2022-08-16T18:26:37.020Z,7.10
2022-08-16T18:29:04.928Z,7.07
2022-08-16T18:31:32.186Z,6.78
2022-08-16T18:33:59.382Z,6.18
2022-08-16T18:36:26.344Z,5.70
2022-08-16T18:38:54.345Z,6.45
2022-08-16T18:41:24.727Z,7.70
2022-08-16T18:44:23.911Z,6.43
2022-08-16T18:46:44.823Z,7.30
2022-08-16T18:49:13.149Z,7.40
2022-08-16T18:51:45.066Z,7.78
2022-08-16T18:54:16.372Z,7.13
2022-08-16T18:56:56.389Z,7.72
2022-08-16T18:59:28.916Z,7.20
2022-08-16T19:02:00.482Z,7.15
2022-08-16T19:04:47.914Z,7.03
2022-08-16T19:07:30.433Z,8.07
2022-08-16T19:10:02.243Z,7.53
2022-08-16T19:12:38.057Z,8.05
2022-08-16T19:15:28.504Z,7.68
2022-08-16T19:17:56.011Z,7.20
2022-08-16T19:20:26.136Z,8.88
2022-08-16T19:23:05.092Z,9.32
2022-08-16T19:25:48.579Z,9.57
2022-08-16T19:28:48.992Z,8.07
2022-08-16T19:31:29.672Z,7.95
2022-08-16T19:33:57.898Z,9.00
2022-08-16T19:36:35.164Z,9.77
2022-08-16T19:39:09.384Z,9.70
2022-08-16T19:41:40.624Z,9.30
2022-08-16T19:44:08.730Z,9.82
2022-08-16T19:46:35.894Z,9.65
2022-08-16T19:49:04.799Z,9.80
2022-08-16T19:51:32.516Z,9.60
2022-08-16T19:53:59.607Z,10.65
2022-08-16T19:56:27.313Z,9.90
2022-08-16T19:59:18.824Z,9.38
2022-08-16T20:01:44.193Z,8.25
2022-08-16T20:04:12.903Z,9.82
2022-08-16T20:06:43.459Z,9.65
2022-08-16T20:09:15.299Z,9.77
2022-08-16T20:11:47.754Z,9.68
2022-08-16T20:14:24.451Z,9.70
2022-08-16T20:16:58.762Z,9.85
2022-08-16T20:19:28.547Z,9.73
2022-08-16T20:22:02.781Z,9.32
2022-08-16T20:24:35.552Z,9.33
2022-08-16T20:27:07.254Z,10.13
2022-08-16T20:29:38.287Z,10.38
2022-08-16T20:32:07.760Z,11.00
2022-08-16T20:34:35.538Z,10.95
2022-08-16T20:37:02.497Z,11.00
2022-08-16T20:39:29.463Z,10.05
2022-08-16T20:41:56.442Z,10.25
2022-08-16T20:44:25.312Z,10.20
2022-08-16T20:46:52.794Z,9.52
2022-08-16T20:49:19.671Z,9.98
2022-08-16T20:51:50.705Z,9.15
2022-08-16T20:54:21.238Z,9.68
2022-08-16T20:56:48.596Z,9.18
2022-08-16T20:59:15.830Z,10.27
2022-08-16T21:01:45.614Z,10.75
2022-08-16T21:04:15.031Z,9.50
2022-08-16T21:06:41.909Z,9.07
2022-08-16T21:09:20.298Z,9.70
2022-08-16T21:11:51.835Z,9.50
2022-08-16T21:14:18.939Z,9.93
2022-08-16T21:16:46.346Z,9.60
2022-08-16T21:19:13.249Z,10.45
2022-08-16T21:21:40.608Z,10.80
2022-08-16T21:24:07.858Z,10.23
2022-08-16T21:26:38.992Z,10.43
2022-08-16T21:29:07.782Z,10.45
2022-08-16T21:31:40.536Z,10.55
2022-08-16T21:34:08.636Z,10.57
2022-08-16T21:36:36.657Z,10.70
2022-08-16T21:39:06.207Z,10.57
2022-08-16T21:41:35.415Z,10.23
2022-08-16T21:44:02.507Z,10.57
2022-08-16T21:46:29.459Z,10.30
2022-08-16T21:48:56.357Z,10.70
2022-08-16T21:51:23.285Z,10.13
2022-08-16T21:53:50.198Z,10.00
2022-08-16T21:56:17.595Z,9.85
2022-08-16T21:58:46.621Z,10.60
2022-08-16T22:01:22.993Z,9.95
2022-08-16T22:04:35.907Z,10.55
2022-08-16T22:06:39.003Z,10.57
2022-08-16T22:09:07.554Z,10.15
2022-08-16T22:11:34.602Z,10.75
2022-08-16T22:14:02.018Z,11.50
2022-08-16T22:16:33.923Z,10.68
2022-08-16T22:19:01.910Z,10.80
2022-08-16T22:21:30.037Z,11.63
2022-08-16T22:23:58.927Z,11.93
2022-08-16T22:26:37.594Z,12.15
2022-08-16T22:29:12.893Z,11.13
2022-08-16T22:31:41.072Z,11.30
2022-08-16T22:34:09.153Z,11.02
2022-08-16T22:36:36.547Z,11.07
2022-08-16T22:39:09.610Z,11.13
2022-08-16T22:42:08.351Z,11.40
2022-08-16T22:44:36.921Z,13.18
2022-08-16T22:47:05.191Z,12.15
2022-08-16T22:49:33.170Z,11.85
2022-08-16T22:52:08.374Z,11.48
2022-08-16T22:54:48.380Z,11.57
2022-08-16T22:57:16.078Z,12.48
2022-08-16T22:59:42.957Z,12.20
2022-08-16T23:02:10.514Z,12.45
2022-08-16T23:04:37.479Z,11.98
2022-08-16T23:07:05.840Z,12.95
2022-08-16T23:09:32.853Z,11.75
2022-08-16T23:12:07.239Z,11.18
2022-08-16T23:14:34.383Z,11.77
2022-08-16T23:17:04.289Z,11.45
2022-08-16T23:19:31.581Z,11.43
2022-08-16T23:21:58.475Z,11.18
2022-08-16T23:24:25.410Z,12.23
2022-08-16T23:26:52.315Z,10.85
2022-08-16T23:29:25.322Z,11.55
2022-08-16T23:32:08.328Z,9.88
2022-08-16T23:34:35.296Z,11.90
2022-08-16T23:37:02.214Z,10.73
2022-08-16T23:39:32.837Z,11.50
2022-08-16T23:42:00.129Z,11.25
2022-08-16T23:44:57.308Z,11.05
2022-08-16T23:47:14.313Z,11.00
2022-08-16T23:49:57.135Z,11.85
2022-08-16T23:52:53.120Z,11.65
2022-08-16T23:55:16.263Z,10.95
2022-08-16T23:57:44.113Z,10.57
